Map

Track Data

SID SEASON NUMBER BASIN SUBBASIN NAME ISO_TIME NATURE LAT LON WMO_WIND WMO_PRES WMO_AGENCY TRACK_TYPE DIST2LAND LANDFALL IFLAG USA_AGENCY USA_ATCF_ID USA_LAT USA_LON USA_RECORD USA_STATUS USA_WIND USA_PRES USA_SSHS USA_R34_NE USA_R34_SE USA_R34_SW USA_R34_NW USA_R50_NE USA_R50_SE USA_R50_SW USA_R50_NW USA_R64_NE USA_R64_SE USA_R64_SW USA_R64_NW USA_POCI USA_ROCI USA_RMW USA_EYE TOKYO_LAT TOKYO_LON TOKYO_GRADE TOKYO_WIND TOKYO_PRES TOKYO_R50_DIR TOKYO_R50_LONG TOKYO_R50_SHORT TOKYO_R30_DIR TOKYO_R30_LONG TOKYO_R30_SHORT TOKYO_LAND CMA_LAT CMA_LON CMA_CAT CMA_WIND CMA_PRES HKO_LAT HKO_LON HKO_CAT HKO_WIND HKO_PRES NEWDELHI_LAT NEWDELHI_LON NEWDELHI_GRADE NEWDELHI_WIND NEWDELHI_PRES NEWDELHI_CI NEWDELHI_DP NEWDELHI_POCI REUNION_LAT REUNION_LON REUNION_TYPE REUNION_WIND REUNION_PRES REUNION_TNUM REUNION_CI REUNION_RMW REUNION_R34_NE REUNION_R34_SE REUNION_R34_SW REUNION_R34_NW REUNION_R50_NE REUNION_R50_SE REUNION_R50_SW REUNION_R50_NW REUNION_R64_NE REUNION_R64_SE REUNION_R64_SW REUNION_R64_NW BOM_LAT BOM_LON BOM_TYPE BOM_WIND BOM_PRES BOM_TNUM BOM_CI BOM_RMW BOM_R34_NE BOM_R34_SE BOM_R34_SW BOM_R34_NW BOM_R50_NE BOM_R50_SE BOM_R50_SW BOM_R50_NW BOM_R64_NE BOM_R64_SE BOM_R64_SW BOM_R64_NW BOM_ROCI BOM_POCI BOM_EYE BOM_POS_METHOD BOM_PRES_METHOD NADI_LAT NADI_LON NADI_CAT NADI_WIND NADI_PRES WELLINGTON_LAT WELLINGTON_LON WELLINGTON_WIND WELLINGTON_PRES DS824_LAT DS824_LON DS824_STAGE DS824_WIND DS824_PRES TD9636_LAT TD9636_LON TD9636_STAGE TD9636_WIND TD9636_PRES TD9635_LAT TD9635_LON TD9635_WIND TD9635_PRES TD9635_ROCI NEUMANN_LAT NEUMANN_LON NEUMANN_CLASS NEUMANN_WIND NEUMANN_PRES MLC_LAT MLC_LON MLC_CLASS MLC_WIND MLC_PRES USA_GUST BOM_GUST BOM_GUST_PER REUNION_GUST REUNION_GUST_PER USA_SEAHGT USA_SEARAD_NE USA_SEARAD_SE USA_SEARAD_SW USA_SEARAD_NW STORM_SPEED STORM_DIR
1929170N19086 1929 37 NI BB NOT_NAMED 1929-06-19 00:00:00 TS 18.5000 85.8000 main 128 104 _________O____ -1 18.5000 85.8000 TC 30 3 293
1929170N19086 1929 37 NI BB NOT_NAMED 1929-06-19 03:00:00 TS 18.5684 85.6350 main 104 80 _________PO___ -1 18.6026 85.5526 TC 30 18.5000 85.8000 1 4 292
1929170N19086 1929 37 NI BB NOT_NAMED 1929-06-19 06:00:00 TS 18.6590 85.3846 main 80 53 _________OP___ -1 18.7000 85.3000 TC 30 18.5975 85.5116 1 5 291
1929170N19086 1929 37 NI BB NOT_NAMED 1929-06-19 09:00:00 TS 18.7511 85.1264 main 47 30 _________PP___ -1 18.7925 85.0425 TC 30 18.6958 85.2383 1 5 292
1929170N19086 1929 37 NI BB NOT_NAMED 1929-06-19 12:00:00 TS 18.8481 84.8980 main 30 0 _________OP___ -1 18.9000 84.8000 TC 30 18.7962 84.9959 1 5 298
1929170N19086 1929 37 NI BB NOT_NAMED 1929-06-19 15:00:00 TS 18.9712 84.6925 main 0 0 _________PO___ -1 19.0425 84.5850 TC 30 18.9000 84.8000 1 4 306
1929170N19086 1929 37 NI BB NOT_NAMED 1929-06-19 18:00:00 TS 19.1053 84.5277 main 0 0 _________OP___ -1 19.2000 84.4000 TC 30 19.0106 84.6554 1 4 314
1929170N19086 1929 37 NI BB NOT_NAMED 1929-06-19 21:00:00 TS 19.2331 84.4091 main 0 0 _________PP___ -1 19.3272 84.2946 TC 30 19.1389 84.5236 1 4 316
1929170N19086 1929 37 NI BB NOT_NAMED 1929-06-20 00:00:00 TS 19.3989 84.2275 main 0 0 _________OP___ -1 19.5000 84.1000 TC 30 19.2978 84.3550 1 6 309
1929170N19086 1929 37 NI BB NOT_NAMED 1929-06-20 03:00:00 TS 19.6388 83.8763 main 0 0 _________PO___ -1 19.7777 83.6527 TC 30 19.5000 84.1000 1 9 304
1929170N19086 1929 37 NI BB NOT_NAMED 1929-06-20 06:00:00 TS 19.9248 83.3909 main 0 0 _________OP___ -1 20.1000 83.1000 TC 30 19.7495 83.6818 1 11 302
1929170N19086 1929 37 NI BB NOT_NAMED 1929-06-20 09:00:00 TS 20.2168 82.8840 main 0 0 _________PP___ -1 20.3924 82.5923 TC 30 20.0411 83.1757 1 11 302
1929170N19086 1929 37 NI BB NOT_NAMED 1929-06-20 12:00:00 TS 20.5310 82.3658 main 0 0 _________OP___ -1 20.7000 82.1000 TC 30 20.3620 82.6316 1 12 304
1929170N19086 1929 37 NI BB NOT_NAMED 1929-06-20 15:00:00 TS 20.8712 81.8674 main 0 0 _________PO___ -1 21.0424 81.6349 TC 30 20.7000 82.1000 1 11 308
1929170N19086 1929 37 NI BB NOT_NAMED 1929-06-20 18:00:00 TS 21.2238 81.4146 main 0 0 _________OP___ -1 21.4000 81.2000 TC 30 21.0476 81.6291 1 11 311
1929170N19086 1929 37 NI BB NOT_NAMED 1929-06-20 21:00:00 TS 21.5861 80.9801 main 0 0 _________PP___ -1 21.7649 80.7775 TC 30 21.4073 81.1827 1 11 313
1929170N19086 1929 37 NI BB NOT_NAMED 1929-06-21 00:00:00 TS 21.9317 80.5849 main 0 0 _________OP___ -1 22.1000 80.4000 TC 30 21.7633 80.7699 1 9 313
1929170N19086 1929 37 NI BB NOT_NAMED 1929-06-21 03:00:00 TS 22.2287 80.2386 main 0 0 _________PO___ -1 22.3574 80.0772 TC 30 22.1000 80.4000 1 8 313
1929170N19086 1929 37 NI BB NOT_NAMED 1929-06-21 06:00:00 TS 22.5001 79.9365 main 0 0 _________OP___ -1 22.6000 79.8000 TC 30 22.4001 80.0729 1 8 317
1929170N19086 1929 37 NI BB NOT_NAMED 1929-06-21 09:00:00 TS 22.7896 79.6657 main 0 0 _________PP___ -1 22.8999 79.5424 TC 30 22.6794 79.7890 1 7 320
1929170N19086 1929 37 NI BB NOT_NAMED 1929-06-21 12:00:00 TS 23.0720 79.4178 main 0 0 _________OP___ -1 23.2000 79.3000 TC 30 22.9440 79.5356 1 7 320
1929170N19086 1929 37 NI BB NOT_NAMED 1929-06-21 15:00:00 TS 23.3287 79.1712 main 0 0 _________PO___ -1 23.4575 79.0424 TC 30 23.2000 79.3000 1 7 316
1929170N19086 1929 37 NI BB NOT_NAMED 1929-06-21 18:00:00 TS 23.5705 78.8841 main 0 0 _________OP___ -1 23.7000 78.8000 TC 30 23.4409 78.9681 1 7 312
1929170N19086 1929 37 NI BB NOT_NAMED 1929-06-21 21:00:00 TS 23.8024 78.6022 main 0 0 _________PP___ -1 23.9275 78.5402 TC 30 23.6773 78.6642 1 6 320
1929170N19086 1929 37 NI BB NOT_NAMED 1929-06-22 00:00:00 TS 24.0625 78.4266 main 0 0 _________OP___ -1 24.2000 78.4000 TC 30 23.9250 78.4531 1 6 344
1929170N19086 1929 37 NI BB NOT_NAMED 1929-06-22 03:00:00 TS 24.3961 78.4188 main 0 0 _________PO___ -1 24.5921 78.4376 TC 30 24.2000 78.4000 1 7 15
1929170N19086 1929 37 NI BB NOT_NAMED 1929-06-22 06:00:00 TS 24.7809 78.6331 main 0 0 _________OP___ -1 25.0000 78.7000 TC 30 24.5619 78.5663 1 9 37
1929170N19086 1929 37 NI BB NOT_NAMED 1929-06-22 09:00:00 TS 25.1416 79.0495 main 0 0 _________PP___ -1 25.3379 79.2045 TC 30 24.9452 78.8944 1 11 51
1929170N19086 1929 37 NI BB NOT_NAMED 1929-06-22 12:00:00 TS 25.4529 79.5629 main 0 0 _________OP___ -1 25.6000 79.8000 TC 30 25.3058 79.3257 1 10 58
1929170N19086 1929 37 NI BB NOT_NAMED 1929-06-22 15:00:00 TS 25.6936 80.0326 main 0 0 _________PO___ -1 25.7872 80.2653 TC 30 25.6000 79.8000 1 9 64
1929170N19086 1929 37 NI BB NOT_NAMED 1929-06-22 18:00:00 TS 25.8408 80.4525 main 0 0 _________OP___ -1 25.9000 80.7000 TC 30 25.7964 80.2669 1 8 73
1929170N19086 1929 37 NI BB NOT_NAMED 1929-06-22 21:00:00 TS 25.9315 80.8897 main 0 0 _________PP___ -1 25.9629 81.1449 TC 30 25.9105 80.7195 1 8 80
1929170N19086 1929 37 NI BB NOT_NAMED 1929-06-23 00:00:00 TS 25.9796 81.3082 main 0 0 _________OP___ -1 26.0000 81.6000 TC 30 25.9694 81.1623 1 6 84
1929170N19086 1929 37 NI BB NOT_NAMED 1929-06-23 03:00:00 NR 26.0000 81.6000 main 0 __________O___ -1 TC 26.0000 81.6000 1 5 86

About IBTrACS Database

This database is a web-friendly format of International Best Track Archive for Climate Stewardship (IBTrACS), a global best track data archive curated by NOAA dating back to 1842.

Updated: 2021-10-25